sensor_id;sensor_type;location;lat;lon;timestamp;pressure;altitude;pressure_sealevel;temperature;humidity
35798;BME280;21918;49.940;7.774;2022-09-03T00:02:34;98371.28;;;22.91;36.73
35798;BME280;21918;49.940;7.774;2022-09-03T00:05:06;98380.53;;;22.92;36.83
35798;BME280;21918;49.940;7.774;2022-09-03T00:07:41;98375.75;;;22.89;36.89
35798;BME280;21918;49.940;7.774;2022-09-03T00:10:13;98376.94;;;22.88;36.84
35798;BME280;21918;49.940;7.774;2022-09-03T00:12:43;98372.53;;;22.87;36.91
35798;BME280;21918;49.940;7.774;2022-09-03T00:15:13;98372.94;;;22.89;37.04
35798;BME280;21918;49.940;7.774;2022-09-03T00:17:44;98363.25;;;22.86;36.83
35798;BME280;21918;49.940;7.774;2022-09-03T00:20:19;98366.91;;;22.83;37.16
35798;BME280;21918;49.940;7.774;2022-09-03T00:22:49;98369.38;;;22.81;36.91
35798;BME280;21918;49.940;7.774;2022-09-03T00:25:21;98371.78;;;22.83;36.92
35798;BME280;21918;49.940;7.774;2022-09-03T00:27:52;98368.97;;;22.83;36.97
35798;BME280;21918;49.940;7.774;2022-09-03T00:30:19;98375.44;;;22.80;37.02
35798;BME280;21918;49.940;7.774;2022-09-03T00:32:49;98375.88;;;22.78;37.27
35798;BME280;21918;49.940;7.774;2022-09-03T00:35:24;98373.47;;;22.77;37.11
35798;BME280;21918;49.940;7.774;2022-09-03T00:37:53;98360.59;;;22.76;37.17
35798;BME280;21918;49.940;7.774;2022-09-03T00:40:37;98366.31;;;22.69;37.04
35798;BME280;21918;49.940;7.774;2022-09-03T00:43:14;98357.38;;;22.74;37.12
35798;BME280;21918;49.940;7.774;2022-09-03T00:45:52;98354.19;;;22.72;37.35
35798;BME280;21918;49.940;7.774;2022-09-03T00:48:24;98362.22;;;22.73;37.13
35798;BME280;21918;49.940;7.774;2022-09-03T00:51:03;98361.44;;;22.73;37.18
35798;BME280;21918;49.940;7.774;2022-09-03T00:53:39;98363.03;;;22.74;37.19
35798;BME280;21918;49.940;7.774;2022-09-03T00:56:13;98356.56;;;22.73;37.33
35798;BME280;21918;49.940;7.774;2022-09-03T00:58:54;98366.31;;;22.69;37.20
35798;BME280;21918;49.940;7.774;2022-09-03T01:01:27;98359.47;;;22.66;37.53
35798;BME280;21918;49.940;7.774;2022-09-03T01:04:05;98358.31;;;22.64;37.38
35798;BME280;21918;49.940;7.774;2022-09-03T01:06:41;98363.94;;;22.64;37.47
35798;BME280;21918;49.940;7.774;2022-09-03T01:09:23;98365.53;;;22.65;37.40
35798;BME280;21918;49.940;7.774;2022-09-03T01:12:07;98359.16;;;22.61;37.63
35798;BME280;21918;49.940;7.774;2022-09-03T01:14:48;98357.56;;;22.60;37.67
35798;BME280;21918;49.940;7.774;2022-09-03T01:17:27;98363.19;;;22.60;37.82
35798;BME280;21918;49.940;7.774;2022-09-03T01:20:19;98360.03;;;22.54;37.76
35798;BME280;21918;49.940;7.774;2022-09-03T01:23:11;98361.19;;;22.60;37.72
35798;BME280;21918;49.940;7.774;2022-09-03T01:25:51;98357.88;;;22.65;37.73
35798;BME280;21918;49.940;7.774;2022-09-03T01:28:40;98357.50;;;22.63;37.67
35798;BME280;21918;49.940;7.774;2022-09-03T01:31:17;98365.50;;;22.68;37.41
35798;BME280;21918;49.940;7.774;2022-09-03T01:33:51;98357.47;;;22.67;37.60
35798;BME280;21918;49.940;7.774;2022-09-03T01:36:30;98354.25;;;22.65;37.56
35798;BME280;21918;49.940;7.774;2022-09-03T01:39:02;98343.69;;;22.72;37.66
35798;BME280;21918;49.940;7.774;2022-09-03T01:41:40;98342.09;;;22.71;37.64
35798;BME280;21918;49.940;7.774;2022-09-03T01:44:38;98343.75;;;22.69;37.71
35798;BME280;21918;49.940;7.774;2022-09-03T01:47:16;98344.84;;;22.75;37.78
35798;BME280;21918;49.940;7.774;2022-09-03T01:49:49;98354.53;;;22.77;37.77
35798;BME280;21918;49.940;7.774;2022-09-03T01:52:32;98345.72;;;22.72;37.59
35798;BME280;21918;49.940;7.774;2022-09-03T01:55:09;98338.88;;;22.69;37.84
35798;BME280;21918;49.940;7.774;2022-09-03T01:57:42;98340.91;;;22.69;37.77
35798;BME280;21918;49.940;7.774;2022-09-03T02:00:15;98343.34;;;22.67;37.67
35798;BME280;21918;49.940;7.774;2022-09-03T02:02:46;98344.19;;;22.64;37.79
35798;BME280;21918;49.940;7.774;2022-09-03T02:05:16;98340.56;;;22.63;38.06
35798;BME280;21918;49.940;7.774;2022-09-03T02:07:47;98344.44;;;22.76;37.31
35798;BME280;21918;49.940;7.774;2022-09-03T02:10:18;98349.84;;;22.64;37.80
35798;BME280;21918;49.940;7.774;2022-09-03T02:12:47;98349.41;;;22.65;37.89
35798;BME280;21918;49.940;7.774;2022-09-03T02:15:18;98355.44;;;22.67;37.84
35798;BME280;21918;49.940;7.774;2022-09-03T02:17:47;98353.41;;;22.68;37.88
35798;BME280;21918;49.940;7.774;2022-09-03T02:20:16;98350.16;;;22.69;37.83
35798;BME280;21918;49.940;7.774;2022-09-03T02:22:46;98340.09;;;22.68;38.00
35798;BME280;21918;49.940;7.774;2022-09-03T02:25:14;98339.25;;;22.71;38.17
35798;BME280;21918;49.940;7.774;2022-09-03T02:27:41;98341.66;;;22.73;38.19
35798;BME280;21918;49.940;7.774;2022-09-03T02:30:09;98332.81;;;22.71;38.07
35798;BME280;21918;49.940;7.774;2022-09-03T02:32:38;98340.84;;;22.72;38.24
35798;BME280;21918;49.940;7.774;2022-09-03T02:35:07;98340.53;;;22.67;38.35
35798;BME280;21918;49.940;7.774;2022-09-03T02:37:34;98341.38;;;22.64;38.05
35798;BME280;21918;49.940;7.774;2022-09-03T02:40:02;98346.19;;;22.63;38.21
35798;BME280;21918;49.940;7.774;2022-09-03T02:42:31;98344.59;;;22.66;38.15
35798;BME280;21918;49.940;7.774;2022-09-03T02:45:02;98353.78;;;22.70;38.23
35798;BME280;21918;49.940;7.774;2022-09-03T02:47:35;98354.97;;;22.72;38.32
35798;BME280;21918;49.940;7.774;2022-09-03T02:50:06;98350.59;;;22.68;38.25
35798;BME280;21918;49.940;7.774;2022-09-03T02:52:33;98343.78;;;22.65;38.15
35798;BME280;21918;49.940;7.774;2022-09-03T02:54:59;98346.19;;;22.67;38.35
35798;BME280;21918;49.940;7.774;2022-09-03T02:57:26;98348.59;;;22.65;38.14
35798;BME280;21918;49.940;7.774;2022-09-03T02:59:53;98346.19;;;22.63;38.40
35798;BME280;21918;49.940;7.774;2022-09-03T03:02:20;98342.19;;;22.64;38.41
35798;BME280;21918;49.940;7.774;2022-09-03T03:04:49;98343.75;;;22.69;38.40
35798;BME280;21918;49.940;7.774;2022-09-03T03:07:17;98346.88;;;22.74;38.55
35798;BME280;21918;49.940;7.774;2022-09-03T03:09:43;98346.88;;;22.74;38.50
35798;BME280;21918;49.940;7.774;2022-09-03T03:12:12;98343.66;;;22.76;38.19
35798;BME280;21918;49.940;7.774;2022-09-03T03:14:41;98333.97;;;22.73;38.48
35798;BME280;21918;49.940;7.774;2022-09-03T03:17:08;98341.25;;;22.74;38.65
35798;BME280;21918;49.940;7.774;2022-09-03T03:19:36;98335.53;;;22.78;38.42
35798;BME280;21918;49.940;7.774;2022-09-03T03:22:03;98333.09;;;22.80;38.45
35798;BME280;21918;49.940;7.774;2022-09-03T03:24:31;98327.47;;;22.80;38.61
35798;BME280;21918;49.940;7.774;2022-09-03T03:26:58;98330.31;;;22.76;38.48
35798;BME280;21918;49.940;7.774;2022-09-03T03:29:25;98330.72;;;22.75;38.43
35798;BME280;21918;49.940;7.774;2022-09-03T03:31:51;98332.28;;;22.79;38.64
35798;BME280;21918;49.940;7.774;2022-09-03T03:34:18;98319.34;;;22.82;38.63
35798;BME280;21918;49.940;7.774;2022-09-03T03:36:53;98314.56;;;22.79;38.64
35798;BME280;21918;49.940;7.774;2022-09-03T03:39:20;98322.22;;;22.78;38.72
35798;BME280;21918;49.940;7.774;2022-09-03T03:41:48;98323.91;;;22.72;38.72
35798;BME280;21918;49.940;7.774;2022-09-03T03:44:16;98322.75;;;22.70;38.58
35798;BME280;21918;49.940;7.774;2022-09-03T03:46:44;98326.03;;;22.65;38.93
35798;BME280;21918;49.940;7.774;2022-09-03T03:49:11;98327.25;;;22.64;38.85
35798;BME280;21918;49.940;7.774;2022-09-03T03:51:38;98328.44;;;22.66;38.89
35798;BME280;21918;49.940;7.774;2022-09-03T03:54:05;98327.97;;;22.71;39.20
35798;BME280;21918;49.940;7.774;2022-09-03T03:56:33;98325.09;;;22.75;39.03
35798;BME280;21918;49.940;7.774;2022-09-03T03:59:01;98316.97;;;22.80;38.64
35798;BME280;21918;49.940;7.774;2022-09-03T04:01:29;98325.88;;;22.79;38.88
35798;BME280;21918;49.940;7.774;2022-09-03T04:03:57;98322.66;;;22.77;39.11
35798;BME280;21918;49.940;7.774;2022-09-03T04:06:24;98331.88;;;22.81;39.02
35798;BME280;21918;49.940;7.774;2022-09-03T04:08:51;98329.44;;;22.83;38.95
35798;BME280;21918;49.940;7.774;2022-09-03T04:11:23;98328.16;;;22.87;38.68
35798;BME280;21918;49.940;7.774;2022-09-03T04:13:51;98326.94;;;22.88;38.66
35798;BME280;21918;49.940;7.774;2022-09-03T04:16:21;98326.88;;;22.92;38.66
35798;BME280;21918;49.940;7.774;2022-09-03T04:18:51;98325.25;;;22.94;38.57
35798;BME280;21918;49.940;7.774;2022-09-03T04:21:20;98320.78;;;22.97;38.47
35798;BME280;21918;49.940;7.774;2022-09-03T04:23:48;98328.00;;;22.98;38.51
35798;BME280;21918;49.940;7.774;2022-09-03T04:26:17;98319.94;;;23.00;38.71
35798;BME280;21918;49.940;7.774;2022-09-03T04:28:44;98323.91;;;23.02;38.72
35798;BME280;21918;49.940;7.774;2022-09-03T04:31:12;98321.50;;;23.01;38.91
35798;BME280;21918;49.940;7.774;2022-09-03T04:33:41;98325.50;;;23.03;38.70
35798;BME280;21918;49.940;7.774;2022-09-03T04:36:10;98330.38;;;23.03;39.02
35798;BME280;21918;49.940;7.774;2022-09-03T04:38:38;98327.97;;;23.01;38.86
35798;BME280;21918;49.940;7.774;2022-09-03T04:41:05;98332.44;;;22.99;38.99
35798;BME280;21918;49.940;7.774;2022-09-03T04:43:32;98331.34;;;23.19;39.06
35798;BME280;21918;49.940;7.774;2022-09-03T04:46:01;98336.25;;;23.15;38.94
35798;BME280;21918;49.940;7.774;2022-09-03T04:48:28;98336.63;;;23.17;38.99
35798;BME280;21918;49.940;7.774;2022-09-03T04:51:02;98335.81;;;23.17;39.06
35798;BME280;21918;49.940;7.774;2022-09-03T04:53:30;98339.81;;;23.19;38.97
35798;BME280;21918;49.940;7.774;2022-09-03T04:55:57;98343.06;;;23.18;39.05
35798;BME280;21918;49.940;7.774;2022-09-03T04:58:24;98341.81;;;23.19;39.00
35798;BME280;21918;49.940;7.774;2022-09-03T05:00:51;98350.38;;;23.15;39.02
35798;BME280;21918;49.940;7.774;2022-09-03T05:03:17;98347.16;;;23.13;39.00
35798;BME280;21918;49.940;7.774;2022-09-03T05:05:51;98355.19;;;23.15;39.13
35798;BME280;21918;49.940;7.774;2022-09-03T05:08:19;98351.94;;;23.16;39.05
35798;BME280;21918;49.940;7.774;2022-09-03T05:10:46;98346.72;;;23.15;39.50
35798;BME280;21918;49.940;7.774;2022-09-03T05:13:14;98346.72;;;23.15;39.44
35798;BME280;21918;49.940;7.774;2022-09-03T05:15:42;98352.75;;;23.17;39.85
35798;BME280;21918;49.940;7.774;2022-09-03T05:18:09;98349.56;;;23.15;39.83
35798;BME280;21918;49.940;7.774;2022-09-03T05:20:36;98352.03;;;23.13;40.07
35798;BME280;21918;49.940;7.774;2022-09-03T05:23:03;98352.03;;;23.13;40.20
35798;BME280;21918;49.940;7.774;2022-09-03T05:25:32;98368.16;;;23.12;40.53
35798;BME280;21918;49.940;7.774;2022-09-03T05:27:59;98381.22;;;23.03;41.23
35798;BME280;21918;49.940;7.774;2022-09-03T05:30:26;98380.91;;;22.94;41.75
35798;BME280;21918;49.940;7.774;2022-09-03T05:32:53;98385.81;;;22.90;41.98
35798;BME280;21918;49.940;7.774;2022-09-03T05:35:19;98386.22;;;22.88;42.08
35798;BME280;21918;49.940;7.774;2022-09-03T05:37:46;98387.81;;;22.89;42.21
35798;BME280;21918;49.940;7.774;2022-09-03T05:40:13;98396.25;;;22.93;42.25
35798;BME280;21918;49.940;7.774;2022-09-03T05:42:41;98390.19;;;22.94;42.43
35798;BME280;21918;49.940;7.774;2022-09-03T05:45:09;98393.03;;;22.94;42.40
35798;BME280;21918;49.940;7.774;2022-09-03T05:47:37;98396.19;;;22.96;42.50
35798;BME280;21918;49.940;7.774;2022-09-03T05:50:06;98394.22;;;22.93;42.50
35798;BME280;21918;49.940;7.774;2022-09-03T05:52:35;98390.22;;;22.91;42.54
35798;BME280;21918;49.940;7.774;2022-09-03T05:55:02;98397.44;;;22.95;42.47
35798;BME280;21918;49.940;7.774;2022-09-03T05:57:28;98386.03;;;23.02;42.68
35798;BME280;21918;49.940;7.774;2022-09-03T05:59:57;98395.34;;;23.03;42.88
35798;BME280;21918;49.940;7.774;2022-09-03T06:02:24;98392.59;;;22.96;42.83
35798;BME280;21918;49.940;7.774;2022-09-03T06:04:51;98384.97;;;22.93;43.02
35798;BME280;21918;49.940;7.774;2022-09-03T06:07:18;98401.81;;;23.00;43.18
35798;BME280;21918;49.940;7.774;2022-09-03T06:09:45;98395.75;;;23.01;43.06
35798;BME280;21918;49.940;7.774;2022-09-03T06:12:17;98394.09;;;23.04;43.06
35798;BME280;21918;49.940;7.774;2022-09-03T06:14:43;98401.34;;;23.05;43.13
35798;BME280;21918;49.940;7.774;2022-09-03T06:17:11;98386.00;;;23.06;43.16
35798;BME280;21918;49.940;7.774;2022-09-03T06:19:39;98390.44;;;23.07;43.24
35798;BME280;21918;49.940;7.774;2022-09-03T06:22:06;98377.91;;;23.08;43.29
35798;BME280;21918;49.940;7.774;2022-09-03T06:24:32;98380.31;;;23.09;43.41
35798;BME280;21918;49.940;7.774;2022-09-03T06:26:59;98385.53;;;23.11;43.37
35798;BME280;21918;49.940;7.774;2022-09-03T06:29:26;98378.66;;;23.12;43.42
35798;BME280;21918;49.940;7.774;2022-09-03T06:31:53;98382.28;;;23.12;43.55
35798;BME280;21918;49.940;7.774;2022-09-03T06:34:22;98371.41;;;23.11;43.69
35798;BME280;21918;49.940;7.774;2022-09-03T06:37:01;98374.31;;;23.04;43.84
35798;BME280;21918;49.940;7.774;2022-09-03T06:39:34;98387.59;;;23.07;43.68
35798;BME280;21918;49.940;7.774;2022-09-03T06:42:03;98377.47;;;23.09;43.56
35798;BME280;21918;49.940;7.774;2022-09-03T06:44:36;98384.28;;;23.12;43.51
35798;BME280;21918;49.940;7.774;2022-09-03T06:47:30;98382.75;;;23.07;43.94
35798;BME280;21918;49.940;7.774;2022-09-03T06:50:12;98370.56;;;23.14;43.67
35798;BME280;21918;49.940;7.774;2022-09-03T06:52:53;98385.53;;;23.11;43.86
35798;BME280;21918;49.940;7.774;2022-09-03T06:55:22;98398.06;;;23.10;43.77
35798;BME280;21918;49.940;7.774;2022-09-03T06:58:10;98396.53;;;23.02;43.92
35798;BME280;21918;49.940;7.774;2022-09-03T07:01:03;98412.63;;;23.05;43.98
35798;BME280;21918;49.940;7.774;2022-09-03T07:03:53;98400.88;;;23.10;43.95
35798;BME280;21918;49.940;7.774;2022-09-03T07:06:30;98402.03;;;23.16;43.79
35798;BME280;21918;49.940;7.774;2022-09-03T07:09:12;98397.56;;;23.15;43.90
35798;BME280;21918;49.940;7.774;2022-09-03T07:11:41;98402.88;;;23.13;43.89
35798;BME280;21918;49.940;7.774;2022-09-03T07:14:12;98407.75;;;23.09;44.18
35798;BME280;21918;49.940;7.774;2022-09-03T07:16:48;98411.69;;;23.15;44.29
35798;BME280;21918;49.940;7.774;2022-09-03T07:19:28;98406.47;;;23.13;44.00
35798;BME280;21918;49.940;7.774;2022-09-03T07:21:55;98410.09;;;23.14;44.03
35798;BME280;21918;49.940;7.774;2022-09-03T07:24:56;98407.38;;;23.07;44.05
35798;BME280;21918;49.940;7.774;2022-09-03T07:27:58;98414.59;;;23.11;44.02
35798;BME280;21918;49.940;7.774;2022-09-03T07:30:41;98411.59;;;23.22;43.81
35798;BME280;21918;49.940;7.774;2022-09-03T07:33:07;98411.59;;;23.22;43.86
35798;BME280;21918;49.940;7.774;2022-09-03T07:35:36;98400.38;;;23.18;43.73
35798;BME280;21918;49.940;7.774;2022-09-03T07:38:03;98402.03;;;23.16;43.94
35798;BME280;21918;49.940;7.774;2022-09-03T07:40:44;98398.81;;;23.14;44.08
35798;BME280;21918;49.940;7.774;2022-09-03T07:43:11;98405.94;;;23.22;43.82
35798;BME280;21918;49.940;7.774;2022-09-03T07:45:38;98407.19;;;23.21;43.90
35798;BME280;21918;49.940;7.774;2022-09-03T07:48:05;98406.78;;;23.19;43.99
35798;BME280;21918;49.940;7.774;2022-09-03T07:50:32;98410.06;;;23.17;43.96
35798;BME280;21918;49.940;7.774;2022-09-03T07:53:05;98408.03;;;23.18;43.91
35798;BME280;21918;49.940;7.774;2022-09-03T07:55:32;98408.00;;;23.21;43.84
35798;BME280;21918;49.940;7.774;2022-09-03T07:57:59;98411.59;;;23.22;44.04
35798;BME280;21918;49.940;7.774;2022-09-03T08:00:28;98409.59;;;23.26;43.92
35798;BME280;21918;49.940;7.774;2022-09-03T08:02:57;98416.81;;;23.27;43.88
35798;BME280;21918;49.940;7.774;2022-09-03T08:05:31;98413.19;;;23.26;43.90
35798;BME280;21918;49.940;7.774;2022-09-03T08:07:58;98416.41;;;23.28;43.96
35798;BME280;21918;49.940;7.774;2022-09-03T08:10:26;98413.94;;;23.30;43.88
35798;BME280;21918;49.940;7.774;2022-09-03T08:12:55;98414.00;;;23.27;44.26
35798;BME280;21918;49.940;7.774;2022-09-03T08:15:22;98415.66;;;23.24;44.13
35798;BME280;21918;49.940;7.774;2022-09-03T08:17:49;98424.13;;;23.24;44.09
35798;BME280;21918;49.940;7.774;2022-09-03T08:20:16;98418.91;;;23.23;44.22
35798;BME280;21918;49.940;7.774;2022-09-03T08:22:43;98436.63;;;23.23;44.34
35798;BME280;21918;49.940;7.774;2022-09-03T08:25:10;98439.00;;;23.28;44.27
35798;BME280;21918;49.940;7.774;2022-09-03T08:27:42;98440.56;;;23.33;44.16
35798;BME280;21918;49.940;7.774;2022-09-03T08:30:09;98441.34;;;23.33;44.18
35798;BME280;21918;49.940;7.774;2022-09-03T08:32:37;98450.22;;;23.35;44.13
35798;BME280;21918;49.940;7.774;2022-09-03T08:35:05;98454.19;;;23.38;44.16
35798;BME280;21918;49.940;7.774;2022-09-03T08:37:33;98448.09;;;23.43;44.19
35798;BME280;21918;49.940;7.774;2022-09-03T08:40:06;98449.28;;;23.42;44.14
35798;BME280;21918;49.940;7.774;2022-09-03T08:42:52;98460.59;;;23.42;44.25
35798;BME280;21918;49.940;7.774;2022-09-03T08:45:30;98454.94;;;23.42;44.13
35798;BME280;21918;49.940;7.774;2022-09-03T08:48:05;98454.59;;;23.40;44.18
35798;BME280;21918;49.940;7.774;2022-09-03T08:50:37;98455.44;;;23.37;44.22
35798;BME280;21918;49.940;7.774;2022-09-03T08:53:10;98464.75;;;23.34;44.54
35798;BME280;21918;49.940;7.774;2022-09-03T08:55:49;98469.59;;;23.33;44.56
35798;BME280;21918;49.940;7.774;2022-09-03T08:58:24;98461.03;;;23.40;44.39
35798;BME280;21918;49.940;7.774;2022-09-03T09:01:19;98459.84;;;23.38;44.44
35798;BME280;21918;49.940;7.774;2022-09-03T09:03:55;98465.38;;;23.48;44.57
35798;BME280;21918;49.940;7.774;2022-09-03T09:06:48;98464.13;;;23.49;44.63
35798;BME280;21918;49.940;7.774;2022-09-03T09:09:26;98459.19;;;23.57;44.35
35798;BME280;21918;49.940;7.774;2022-09-03T09:12:15;98456.47;;;23.50;44.57
35798;BME280;21918;49.940;7.774;2022-09-03T09:14:54;98457.22;;;23.54;44.59
35798;BME280;21918;49.940;7.774;2022-09-03T09:17:40;98450.75;;;23.53;44.60
35798;BME280;21918;49.940;7.774;2022-09-03T09:20:22;98459.94;;;23.61;44.74
35798;BME280;21918;49.940;7.774;2022-09-03T09:22:55;98453.78;;;23.66;44.57
35798;BME280;21918;49.940;7.774;2022-09-03T09:25:31;98456.59;;;23.69;44.37
35798;BME280;21918;49.940;7.774;2022-09-03T09:28:09;98458.13;;;23.74;44.30
35798;BME280;21918;49.940;7.774;2022-09-03T09:30:39;98456.84;;;23.78;44.42
35798;BME280;21918;49.940;7.774;2022-09-03T09:33:08;98453.97;;;23.82;44.35
35798;BME280;21918;49.940;7.774;2022-09-03T09:35:34;98456.69;;;23.89;44.31
35798;BME280;21918;49.940;7.774;2022-09-03T09:38:05;98450.94;;;23.96;44.23
35798;BME280;21918;49.940;7.774;2022-09-03T09:40:34;98466.63;;;24.00;44.41
35798;BME280;21918;49.940;7.774;2022-09-03T09:44:24;98460.06;;;24.07;44.37
35798;BME280;21918;49.940;7.774;2022-09-03T09:46:34;98460.53;;;24.02;44.52
35798;BME280;21918;49.940;7.774;2022-09-03T09:49:21;98479.09;;;24.03;44.52
35798;BME280;21918;49.940;7.774;2022-09-03T09:52:00;98468.50;;;24.10;44.59
35798;BME280;21918;49.940;7.774;2022-09-03T09:54:27;98470.72;;;24.22;44.67
35798;BME280;21918;49.940;7.774;2022-09-03T09:56:58;98471.78;;;24.32;44.56
35798;BME280;21918;49.940;7.774;2022-09-03T09:59:26;98469.66;;;24.36;44.76
35798;BME280;21918;49.940;7.774;2022-09-03T10:02:06;98473.75;;;24.35;44.96
35798;BME280;21918;49.940;7.774;2022-09-03T10:04:35;98476.88;;;24.40;44.95
35798;BME280;21918;49.940;7.774;2022-09-03T10:07:21;98480.00;;;24.46;44.70
35798;BME280;21918;49.940;7.774;2022-09-03T10:09:58;98471.91;;;24.48;44.85
35798;BME280;21918;49.940;7.774;2022-09-03T10:12:29;98466.09;;;24.55;44.59
35798;BME280;21918;49.940;7.774;2022-09-03T10:15:03;98466.09;;;24.55;45.01
35798;BME280;21918;49.940;7.774;2022-09-03T10:17:42;98459.34;;;24.49;45.04
35798;BME280;21918;49.940;7.774;2022-09-03T10:20:13;98454.47;;;24.49;45.27
35798;BME280;21918;49.940;7.774;2022-09-03T10:22:58;98460.44;;;24.55;45.30
35798;BME280;21918;49.940;7.774;2022-09-03T10:25:29;98461.50;;;24.64;44.89
35798;BME280;21918;49.940;7.774;2022-09-03T10:28:00;98459.41;;;24.68;44.74
35798;BME280;21918;49.940;7.774;2022-09-03T10:30:28;98469.88;;;24.72;45.07
35798;BME280;21918;49.940;7.774;2022-09-03T10:33:10;98466.31;;;24.67;45.38
35798;BME280;21918;49.940;7.774;2022-09-03T10:35:43;98471.53;;;24.69;45.46
35798;BME280;21918;49.940;7.774;2022-09-03T10:38:17;98470.00;;;24.64;45.37
35798;BME280;21918;49.940;7.774;2022-09-03T10:40:52;98468.41;;;24.63;45.30
35798;BME280;21918;49.940;7.774;2022-09-03T10:43:39;98460.31;;;24.62;45.38
35798;BME280;21918;49.940;7.774;2022-09-03T10:46:25;98455.84;;;24.64;45.54
35798;BME280;21918;49.940;7.774;2022-09-03T10:49:19;98459.84;;;24.67;45.66
35798;BME280;21918;49.940;7.774;2022-09-03T10:51:55;98465.53;;;24.87;45.47
35798;BME280;21918;49.940;7.774;2022-09-03T10:54:35;98458.78;;;25.00;45.40
35798;BME280;21918;49.940;7.774;2022-09-03T10:57:13;98453.69;;;25.11;45.63
35798;BME280;21918;49.940;7.774;2022-09-03T10:59:56;98450.28;;;25.20;45.27
35798;BME280;21918;49.940;7.774;2022-09-03T11:02:41;98457.84;;;25.26;45.08
35798;BME280;21918;49.940;7.774;2022-09-03T11:05:14;98450.09;;;25.30;45.08
35798;BME280;21918;49.940;7.774;2022-09-03T11:07:46;98445.16;;;25.34;45.24
35798;BME280;21918;49.940;7.774;2022-09-03T11:10:18;98447.63;;;25.32;45.09
35798;BME280;21918;49.940;7.774;2022-09-03T11:12:54;98443.13;;;25.35;45.38
35798;BME280;21918;49.940;7.774;2022-09-03T11:15:27;98438.16;;;25.39;45.00
35798;BME280;21918;49.940;7.774;2022-09-03T11:18:00;98438.44;;;25.44;45.19
35798;BME280;21918;49.940;7.774;2022-09-03T11:20:31;98429.44;;;25.49;45.07
35798;BME280;21918;49.940;7.774;2022-09-03T11:23:00;98437.34;;;25.58;44.99
35798;BME280;21918;49.940;7.774;2022-09-03T11:25:31;98444.44;;;25.66;45.18
35798;BME280;21918;49.940;7.774;2022-09-03T11:28:08;98433.72;;;25.73;45.27
35798;BME280;21918;49.940;7.774;2022-09-03T11:30:49;98432.41;;;25.78;45.12
35798;BME280;21918;49.940;7.774;2022-09-03T11:33:20;98424.88;;;25.87;45.13
35798;BME280;21918;49.940;7.774;2022-09-03T11:35:56;98414.84;;;25.83;44.89
35798;BME280;21918;49.940;7.774;2022-09-03T11:38:26;98419.28;;;25.84;45.30
35798;BME280;21918;49.940;7.774;2022-09-03T11:41:09;98418.13;;;25.81;45.12
35798;BME280;21918;49.940;7.774;2022-09-03T11:43:37;98411.94;;;25.86;45.32
35798;BME280;21918;49.940;7.774;2022-09-03T11:46:13;98402.19;;;25.87;45.33
35798;BME280;21918;49.940;7.774;2022-09-03T11:48:53;98412.09;;;25.95;44.82
35798;BME280;21918;49.940;7.774;2022-09-03T11:51:33;98398.38;;;25.94;45.23
35798;BME280;21918;49.940;7.774;2022-09-03T11:54:04;98395.84;;;25.99;45.35
35798;BME280;21918;49.940;7.774;2022-09-03T11:56:32;98399.38;;;26.03;45.38
35798;BME280;21918;49.940;7.774;2022-09-03T11:59:14;98398.13;;;26.04;45.29
35798;BME280;21918;49.940;7.774;2022-09-03T12:01:46;98406.84;;;26.13;45.00
35798;BME280;21918;49.940;7.774;2022-09-03T12:04:18;98398.78;;;26.12;44.93
35798;BME280;21918;49.940;7.774;2022-09-03T12:07:00;98400.47;;;26.09;45.03
35798;BME280;21918;49.940;7.774;2022-09-03T12:09:43;98403.31;;;26.09;44.86
35798;BME280;21918;49.940;7.774;2022-09-03T12:12:29;98413.47;;;26.23;44.98
35798;BME280;21918;49.940;7.774;2022-09-03T12:15:03;98409.69;;;26.29;44.78
35798;BME280;21918;49.940;7.774;2022-09-03T12:17:37;98408.44;;;26.30;44.63
35798;BME280;21918;49.940;7.774;2022-09-03T12:20:12;98399.91;;;26.30;44.58
35798;BME280;21918;49.940;7.774;2022-09-03T12:22:41;98396.63;;;26.32;44.72
35798;BME280;21918;49.940;7.774;2022-09-03T12:25:09;98383.94;;;26.36;44.75
35798;BME280;21918;49.940;7.774;2022-09-03T12:27:37;98389.16;;;26.38;44.84
35798;BME280;21918;49.940;7.774;2022-09-03T12:30:17;98383.94;;;26.36;44.54
35798;BME280;21918;49.940;7.774;2022-09-03T12:32:44;98385.78;;;26.43;44.39
35798;BME280;21918;49.940;7.774;2022-09-03T12:35:15;98386.03;;;26.48;44.70
35798;BME280;21918;49.940;7.774;2022-09-03T12:37:51;98385.31;;;26.44;44.46
35798;BME280;21918;49.940;7.774;2022-09-03T12:40:21;98389.88;;;26.42;44.59
35798;BME280;21918;49.940;7.774;2022-09-03T12:42:49;98393.16;;;26.40;44.65
35798;BME280;21918;49.940;7.774;2022-09-03T12:45:19;98391.19;;;26.37;44.67
35798;BME280;21918;49.940;7.774;2022-09-03T12:47:46;98387.56;;;26.37;44.83
35798;BME280;21918;49.940;7.774;2022-09-03T12:50:15;98393.59;;;26.39;45.08
35798;BME280;21918;49.940;7.774;2022-09-03T12:52:44;98395.63;;;26.38;44.90
35798;BME280;21918;49.940;7.774;2022-09-03T12:55:28;98391.44;;;26.43;45.15
35798;BME280;21918;49.940;7.774;2022-09-03T12:58:04;98393.66;;;26.51;45.07
35798;BME280;21918;49.940;7.774;2022-09-03T13:00:33;98395.59;;;26.54;44.82
35798;BME280;21918;49.940;7.774;2022-09-03T13:03:03;98393.91;;;26.57;45.19
35798;BME280;21918;49.940;7.774;2022-09-03T13:05:33;98400.72;;;26.59;45.06
35798;BME280;21918;49.940;7.774;2022-09-03T13:08:03;98403.06;;;26.64;44.93
35798;BME280;21918;49.940;7.774;2022-09-03T13:10:34;98411.66;;;26.61;45.08
35798;BME280;21918;49.940;7.774;2022-09-03T13:13:14;98411.22;;;26.62;45.11
35798;BME280;21918;49.940;7.774;2022-09-03T13:16:03;98407.22;;;26.60;44.76
35798;BME280;21918;49.940;7.774;2022-09-03T13:18:38;98406.22;;;26.66;44.82
35798;BME280;21918;49.940;7.774;2022-09-03T13:21:14;98405.09;;;26.64;44.99
35798;BME280;21918;49.940;7.774;2022-09-03T13:24:42;98403.97;;;26.61;45.03
35798;BME280;21918;49.940;7.774;2022-09-03T13:27:45;98400.72;;;26.59;45.35
35798;BME280;21918;49.940;7.774;2022-09-03T13:30:19;98395.16;;;26.72;44.96
35798;BME280;21918;49.940;7.774;2022-09-03T13:32:54;98389.03;;;26.73;45.11